Time;durP1;ratioP1;P1;durP2;ratioP2;P2;SDS_P1;SDS_P2;PMS_P1;PMS_P2;Temp;Humidity;BMP_temperature;BMP_pressure;BME280_temperature;BME280_humidity;BME280_pressure;Samples;Min_cycle;Max_cycle;Signal;HPM_P1;HPM_P2
2022/11/29 00:01:51;;;;;;;15.13;12.18;;;;;;;11.64;73.51;100005.56;5153657;27;20051;-63
2022/11/29 00:04:18;;;;;;;13.95;11.65;;;;;;;11.71;73.77;100005.03;5154263;27;20051;-63
2022/11/29 00:06:47;;;;;;;12.25;10.95;;;;;;;11.66;73.57;100008.81;5151299;27;20062;-63
2022/11/29 00:09:14;;;;;;;15.45;12.13;;;;;;;11.69;72.87;100005.34;5114222;27;20125;-63
2022/11/29 00:14:30;;;;;;;17.80;13.27;;;;;;;11.71;74.01;100011.44;5160213;27;20046;-63
2022/11/29 00:17:00;;;;;;;15.40;12.13;;;;;;;11.75;73.17;100009.59;5150855;27;20050;-63
2022/11/29 00:19:33;;;;;;;14.55;11.05;;;;;;;11.84;72.56;100014.34;5140607;27;20422;-63
2022/11/29 00:22:02;;;;;;;19.50;13.55;;;;;;;11.70;73.10;100020.97;5154714;27;20051;-63
2022/11/29 00:24:31;;;;;;;12.02;9.48;;;;;;;11.66;73.18;100024.75;5155302;27;20047;-63
2022/11/29 00:26:59;;;;;;;14.50;11.68;;;;;;;11.66;73.37;100020.00;5156072;27;20146;-63
2022/11/29 00:29:27;;;;;;;11.65;9.95;;;;;;;11.70;73.64;100018.16;5155725;27;20055;-62
2022/11/29 00:31:56;;;;;;;14.32;12.15;;;;;;;11.70;73.59;100023.75;5148788;27;20062;-63
2022/11/29 00:34:23;;;;;;;11.30;9.18;;;;;;;11.73;73.64;100037.03;5155073;27;20054;-63
2022/11/29 00:36:51;;;;;;;12.43;9.85;;;;;;;11.74;73.39;100026.69;5155543;27;20059;-63
2022/11/29 00:39:20;;;;;;;11.55;10.23;;;;;;;11.73;73.75;100025.84;5155199;27;20406;-63
2022/11/29 00:41:47;;;;;;;13.02;10.93;;;;;;;11.62;74.00;100026.56;5155711;27;20399;-63
2022/11/29 00:44:14;;;;;;;13.27;9.98;;;;;;;11.57;74.37;100020.00;5154900;27;20061;-63
2022/11/29 00:46:42;;;;;;;11.30;9.38;;;;;;;11.61;74.38;100019.34;5153077;27;20061;-63
2022/11/29 00:49:09;;;;;;;13.73;10.68;;;;;;;11.62;73.77;100019.00;5155441;27;20054;-63
2022/11/29 00:51:37;;;;;;;12.27;9.73;;;;;;;11.64;74.49;100019.50;5155243;27;20057;-63
2022/11/29 00:54:04;;;;;;;10.85;9.25;;;;;;;11.64;74.27;100016.72;5153206;27;20049;-63
2022/11/29 00:56:33;;;;;;;14.77;11.00;;;;;;;11.69;74.36;100019.31;5134237;27;20058;-63
2022/11/29 00:59:04;;;;;;;13.60;11.55;;;;;;;11.72;74.18;100026.22;5134643;27;20073;-63
2022/11/29 01:01:31;;;;;;;14.80;11.05;;;;;;;11.70;74.03;100012.59;5143552;27;20495;-63
2022/11/29 01:04:00;;;;;;;12.52;9.90;;;;;;;11.69;73.85;100024.88;5154457;27;20047;-63
2022/11/29 01:06:27;;;;;;;13.02;10.57;;;;;;;11.73;73.89;100016.69;5154924;27;20050;-63
2022/11/29 01:08:55;;;;;;;12.95;10.48;;;;;;;11.76;74.07;100022.41;5154474;27;20057;-63
2022/11/29 01:11:23;;;;;;;12.88;10.43;;;;;;;11.78;73.96;100027.69;5154877;27;20046;-63
2022/11/29 01:13:55;;;;;;;11.85;9.27;;;;;;;11.81;73.88;100026.19;5154744;27;20509;-63
2022/11/29 01:16:23;;;;;;;13.65;11.63;;;;;;;11.79;74.17;100030.09;5152932;27;20054;-63
2022/11/29 01:18:50;;;;;;;12.38;10.32;;;;;;;11.72;74.01;100024.25;5154554;27;20051;-63
2022/11/29 01:21:23;;;;;;;13.40;11.43;;;;;;;11.69;74.51;100024.06;5154760;27;20063;-63
2022/11/29 01:23:52;;;;;;;12.10;10.65;;;;;;;11.67;74.36;100027.19;5154132;27;20043;-63
2022/11/29 01:26:22;;;;;;;18.73;13.25;;;;;;;11.74;74.39;100029.50;5154605;27;20058;-63
2022/11/29 01:28:53;;;;;;;12.82;10.57;;;;;;;11.72;74.48;100035.41;5154468;27;20054;-63
2022/11/29 01:31:22;;;;;;;12.75;10.32;;;;;;;11.63;74.58;100034.59;5147629;27;20054;-63
2022/11/29 01:33:53;;;;;;;14.32;11.80;;;;;;;11.60;74.57;100032.47;5137924;27;20051;-63
2022/11/29 01:36:23;;;;;;;12.00;9.90;;;;;;;11.64;74.36;100027.88;5116920;27;20059;-63
2022/11/29 01:38:53;;;;;;;11.88;10.13;;;;;;;11.70;74.47;100029.31;5112685;28;20051;-63
2022/11/29 01:41:25;;;;;;;11.70;9.80;;;;;;;11.72;74.32;100035.41;5112941;28;20055;-63
2022/11/29 01:43:59;;;;;;;10.95;9.52;;;;;;;11.73;74.25;100037.03;5112676;28;20491;-63
2022/11/29 01:46:28;;;;;;;11.55;10.35;;;;;;;11.78;73.87;100042.44;5138314;27;20053;-63
2022/11/29 01:49:03;;;;;;;12.15;10.85;;;;;;;11.81;74.07;100038.16;5153837;27;20069;-63
2022/11/29 01:51:36;;;;;;;13.52;10.50;;;;;;;11.87;73.73;100045.19;5154042;27;20046;-63
2022/11/29 01:54:04;;;;;;;11.80;9.55;;;;;;;11.81;73.92;100046.53;5152175;27;20054;-63
2022/11/29 01:56:33;;;;;;;12.02;9.73;;;;;;;11.88;74.07;100048.78;5132808;27;20051;-63
2022/11/29 01:59:08;;;;;;;13.50;11.07;;;;;;;11.88;73.63;100054.38;5133213;27;20058;-63
2022/11/29 02:01:36;;;;;;;10.68;9.55;;;;;;;11.82;73.54;100045.34;5150599;27;20054;-63
2022/11/29 02:04:06;;;;;;;9.68;8.32;;;;;;;11.89;73.41;100056.06;5153498;27;20054;-63
2022/11/29 02:06:34;;;;;;;10.50;9.43;;;;;;;11.92;73.55;100056.19;5153681;27;20065;-63
2022/11/29 02:09:02;;;;;;;10.60;9.15;;;;;;;11.97;73.70;100056.03;5153811;27;20061;-63
2022/11/29 02:11:55;;;;;;;9.80;8.80;;;;;;;12.03;73.65;100056.66;5153540;27;20057;-63
2022/11/29 02:14:47;;;;;;;10.10;8.90;;;;;;;12.02;73.17;100057.81;5149632;27;20051;-63
2022/11/29 02:17:25;;;;;;;10.88;9.05;;;;;;;12.00;73.19;100057.31;5151432;27;20080;-63
2022/11/29 02:20:32;;;;;;;11.05;9.57;;;;;;;12.00;72.84;100059.31;5152976;27;20414;-63
2022/11/29 02:23:16;;;;;;;11.10;9.90;;;;;;;12.01;72.96;100063.72;5153285;27;20055;-63
2022/11/29 02:26:02;;;;;;;10.35;9.00;;;;;;;12.04;72.42;100066.66;5155098;27;20528;-62
2022/11/29 02:29:13;;;;;;;9.23;8.10;;;;;;;12.07;72.91;100067.97;5154751;27;20055;-62
2022/11/29 02:32:15;;;;;;;11.32;8.93;;;;;;;12.05;72.79;100071.09;5102143;28;20488;-62
2022/11/29 02:34:58;;;;;;;10.63;9.48;;;;;;;12.06;72.32;100066.34;5110778;28;20047;-62
2022/11/29 02:37:45;;;;;;;11.88;9.10;;;;;;;12.08;73.21;100059.25;5116662;28;20062;-62
2022/11/29 02:40:39;;;;;;;12.00;9.57;;;;;;;12.09;72.55;100069.25;5116544;28;20476;-62
2022/11/29 02:43:33;;;;;;;12.05;9.77;;;;;;;12.10;72.70;100073.72;5116380;28;20051;-62
2022/11/29 02:46:13;;;;;;;10.60;9.35;;;;;;;12.09;72.57;100071.25;5128502;27;20055;-62
2022/11/29 02:48:58;;;;;;;11.70;9.40;;;;;;;12.09;72.57;100076.81;5095427;28;20059;-62
2022/11/29 02:51:39;;;;;;;10.23;9.18;;;;;;;12.11;72.10;100075.34;5132593;27;20047;-62
2022/11/29 02:54:15;;;;;;;10.20;8.95;;;;;;;12.14;72.13;100074.69;5134069;27;20051;-62
2022/11/29 02:56:51;;;;;;;11.15;9.02;;;;;;;12.11;72.55;100075.34;5116281;28;20052;-62
2022/11/29 02:59:37;;;;;;;11.20;9.18;;;;;;;12.13;72.55;100077.78;5116055;28;20069;-63
2022/11/29 03:02:14;;;;;;;11.00;8.73;;;;;;;12.13;72.65;100084.19;5116175;28;20476;-62
2022/11/29 03:04:49;;;;;;;11.98;9.00;;;;;;;12.10;72.17;100084.88;5120834;27;20505;-62
2022/11/29 03:07:27;;;;;;;10.13;8.88;;;;;;;12.12;72.42;100085.38;5130570;27;20423;-62
2022/11/29 03:10:00;;;;;;;9.35;8.18;;;;;;;12.16;72.06;100089.13;5135786;27;20161;-62
2022/11/29 03:12:38;;;;;;;12.48;9.63;;;;;;;12.16;72.53;100091.91;5136312;27;20058;-62
2022/11/29 03:15:19;;;;;;;10.85;8.57;;;;;;;12.16;71.98;100097.50;5136312;27;20055;-62
2022/11/29 03:18:01;;;;;;;12.13;9.10;;;;;;;12.18;72.31;100095.19;5136051;27;20051;-62
2022/11/29 03:20:38;;;;;;;10.32;8.68;;;;;;;12.19;72.05;100102.41;5133631;27;20395;-62
2022/11/29 03:23:28;;;;;;;10.07;7.70;;;;;;;12.18;72.19;100103.56;5095178;28;20052;-62
2022/11/29 03:25:57;;;;;;;;;;;;;;;12.17;72.58;100107.50;5101973;27;20387;-62
2022/11/29 03:28:33;;;;;;;9.82;8.43;;;;;;;12.21;72.29;100104.06;5134131;27;19926;-62
2022/11/29 03:31:09;;;;;;;10.07;7.88;;;;;;;12.21;71.99;100101.25;5135704;27;20051;-61
2022/11/29 03:33:48;;;;;;;10.82;7.82;;;;;;;12.24;72.27;100103.38;5135714;27;20499;-62
2022/11/29 03:36:25;;;;;;;10.10;7.93;;;;;;;12.30;71.89;100110.41;5134874;27;20055;-62
2022/11/29 03:38:58;;;;;;;10.05;8.00;;;;;;;12.24;71.74;100107.00;5133117;27;20499;-61
2022/11/29 03:41:32;;;;;;;11.13;9.05;;;;;;;12.28;71.73;100109.94;5136222;27;20058;-62
2022/11/29 03:44:08;;;;;;;9.95;8.10;;;;;;;12.29;71.33;100111.59;5135593;27;20400;-62
2022/11/29 03:46:42;;;;;;;10.32;8.75;;;;;;;12.26;71.67;100115.84;5136254;27;20051;-60
2022/11/29 03:49:15;;;;;;;10.90;8.60;;;;;;;12.30;71.15;100118.78;5135893;27;20055;-60
2022/11/29 03:51:54;;;;;;;12.82;10.35;;;;;;;12.30;71.85;100116.81;5156040;27;20584;-61
2022/11/29 03:54:28;;;;;;;14.38;10.40;;;;;;;12.26;71.63;100120.63;5143779;27;20047;-61
2022/11/29 03:57:09;;;;;;;11.75;8.80;;;;;;;12.26;71.52;100115.03;5135681;27;20047;-62
2022/11/29 03:59:51;;;;;;;13.45;9.85;;;;;;;12.27;71.53;100116.69;5135270;27;20047;-62
2022/11/29 04:03:04;;;;;;;13.00;10.25;;;;;;;12.25;70.87;100127.38;5135044;27;20423;-61
2022/11/29 04:05:55;;;;;;;11.23;9.15;;;;;;;12.16;70.65;100130.19;5134453;27;20062;-61
2022/11/29 04:08:55;;;;;;;13.13;10.93;;;;;;;12.12;71.04;100120.84;5151808;27;20058;-61
2022/11/29 04:11:58;;;;;;;13.98;10.52;;;;;;;12.18;70.75;100145.44;5147924;27;20054;-59
2022/11/29 04:14:33;;;;;;;13.73;10.18;;;;;;;12.10;71.47;100139.91;5114369;27;20050;-61
2022/11/29 04:17:45;;;;;;;12.82;10.70;;;;;;;12.13;70.56;100142.81;5156342;27;20062;-61
2022/11/29 04:20:45;;;;;;;14.95;11.05;;;;;;;12.14;70.49;100141.69;5051567;28;20184;-62
2022/11/29 04:23:45;;;;;;;16.92;11.50;;;;;;;12.10;71.22;100151.06;5103835;27;20050;-61
2022/11/29 04:26:38;;;;;;;22.10;13.80;;;;;;;12.10;70.89;100149.09;5154592;27;20047;-61
2022/11/29 04:29:22;;;;;;;24.30;14.35;;;;;;;12.15;70.65;100162.03;5155931;27;20065;-61
2022/11/29 04:32:13;;;;;;;24.35;14.32;;;;;;;12.04;71.33;100163.56;5155430;27;20061;-61
2022/11/29 04:35:01;;;;;;;28.90;15.77;;;;;;;12.02;71.91;100161.09;5155275;27;20042;-61
2022/11/29 04:37:56;;;;;;;27.38;14.18;;;;;;;12.04;71.04;100161.59;5153652;27;20418;-61
2022/11/29 04:40:40;;;;;;;26.67;15.07;;;;;;;11.97;71.51;100158.50;5155241;27;20053;-61
2022/11/29 04:43:30;;;;;;;27.23;14.38;;;;;;;11.98;71.57;100157.31;5155427;27;20112;-61
2022/11/29 04:46:29;;;;;;;31.27;15.57;;;;;;;11.96;71.50;100165.22;5152736;27;20054;-61
2022/11/29 04:49:25;;;;;;;31.55;14.60;;;;;;;12.00;71.94;100168.97;5154764;27;20054;-62
2022/11/29 04:52:17;;;;;;;36.58;14.57;;;;;;;11.92;72.31;100173.41;5152347;27;20062;-61
2022/11/29 04:54:52;;;;;;;31.40;15.20;;;;;;;11.92;72.72;100170.63;5146925;27;20047;-61
2022/11/29 04:57:33;;;;;;;25.98;13.80;;;;;;;11.97;72.07;100175.25;5134244;27;20062;-61
2022/11/29 05:00:08;;;;;;;20.50;11.30;;;;;;;11.93;71.91;100177.88;5134138;27;20055;-61
2022/11/29 05:02:48;;;;;;;27.70;12.85;;;;;;;11.87;72.16;100178.34;5133922;27;20069;-61
2022/11/29 05:05:27;;;;;;;25.98;13.00;;;;;;;11.86;72.59;100171.09;5139296;27;20051;-61
2022/11/29 05:08:06;;;;;;;28.77;13.13;;;;;;;11.83;72.35;100177.34;5154879;27;20046;-61
2022/11/29 05:10:39;;;;;;;30.73;12.85;;;;;;;11.83;72.29;100183.75;5154714;27;20055;-60
2022/11/29 05:13:12;;;;;;;31.10;13.93;;;;;;;11.74;72.93;100185.75;5155045;27;20395;-61
2022/11/29 05:15:58;;;;;;;24.95;12.27;;;;;;;11.77;73.49;100188.66;5154161;27;20380;-61
2022/11/29 05:18:48;;;;;;;23.45;11.32;;;;;;;11.86;72.98;100187.84;5154865;27;20047;-63
2022/11/29 05:21:27;;;;;;;26.38;12.88;;;;;;;11.85;72.83;100186.22;5146548;27;20050;-61
2022/11/29 05:24:08;;;;;;;28.60;15.23;;;;;;;11.84;72.37;100184.56;5154449;27;20051;-61
2022/11/29 05:26:41;;;;;;;29.98;13.80;;;;;;;11.84;72.21;100192.94;5154602;27;20509;-62
2022/11/29 05:29:16;;;;;;;28.73;14.30;;;;;;;11.84;72.59;100198.50;5154410;27;20070;-61
2022/11/29 05:32:07;;;;;;;27.60;13.55;;;;;;;11.83;72.33;100199.69;5153951;27;20053;-61
2022/11/29 05:34:59;;;;;;;27.23;12.65;;;;;;;11.81;72.66;100210.34;5152465;27;20054;-60
2022/11/29 05:37:38;;;;;;;27.45;13.63;;;;;;;11.71;72.40;100203.94;5154400;27;20051;-61
2022/11/29 05:40:37;;;;;;;23.45;11.93;;;;;;;11.74;72.46;100214.47;5144175;27;20057;-61
2022/11/29 05:43:21;;;;;;;29.13;13.32;;;;;;;11.70;72.75;100213.47;5149863;27;20050;-61
2022/11/29 05:45:55;;;;;;;23.90;12.55;;;;;;;11.71;72.41;100217.88;5151032;27;20394;-62
2022/11/29 05:48:29;;;;;;;26.00;13.20;;;;;;;11.78;71.75;100212.66;5126486;27;20050;-60
2022/11/29 05:51:09;;;;;;;29.50;15.82;;;;;;;11.71;71.69;100217.88;5136081;27;20051;-61
2022/11/29 05:53:47;;;;;;;28.35;16.33;;;;;;;11.75;71.67;100224.44;5112155;28;20058;-61
2022/11/29 05:56:23;;;;;;;32.85;16.48;;;;;;;11.72;71.20;100219.53;5131352;27;20071;-60
2022/11/29 05:58:55;;;;;;;32.55;18.15;;;;;;;11.67;71.95;100232.81;5126375;27;20051;-60
2022/11/29 06:01:25;;;;;;;34.38;18.20;;;;;;;11.71;71.35;100236.59;5128881;27;20051;-60
2022/11/29 06:03:59;;;;;;;31.85;17.40;;;;;;;11.72;71.09;100241.88;5116216;27;20403;-60
2022/11/29 06:06:39;;;;;;;33.05;19.00;;;;;;;11.73;71.06;100237.09;5128887;27;20046;-60
2022/11/29 06:09:16;;;;;;;39.03;20.77;;;;;;;11.60;71.30;100250.06;5143983;27;20411;-60
2022/11/29 06:11:47;;;;;;;39.22;21.95;;;;;;;11.64;71.11;100251.03;5152827;27;20047;-61
2022/11/29 06:14:34;;;;;;;39.53;21.25;;;;;;;11.72;70.67;100249.41;5148519;27;20491;-61
2022/11/29 06:17:17;;;;;;;41.65;19.98;;;;;;;11.63;71.16;100254.97;5153823;27;20066;-61
2022/11/29 06:20:03;;;;;;;35.85;19.10;;;;;;;11.63;70.89;100254.16;5142311;27;20051;-61
2022/11/29 06:22:51;;;;;;;42.67;23.02;;;;;;;11.63;71.44;100266.13;5129484;28;20054;-61
2022/11/29 06:25:30;;;;;;;41.15;22.13;;;;;;;11.65;71.44;100269.41;5127183;28;20050;-61
2022/11/29 06:28:22;;;;;;;55.03;28.20;;;;;;;11.57;71.23;100275.84;5128779;28;20480;-61
2022/11/29 06:31:01;;;;;;;54.05;27.55;;;;;;;11.65;71.17;100275.00;5125749;28;20050;-61
2022/11/29 06:33:38;;;;;;;54.83;27.20;;;;;;;11.68;70.70;100266.00;5121344;27;20055;-62
2022/11/29 06:36:15;;;;;;;46.35;24.20;;;;;;;11.73;70.67;100276.97;5120846;28;20050;-61
2022/11/29 06:38:44;;;;;;;52.05;25.13;;;;;;;11.69;70.63;100273.19;5121651;28;20047;-62
2022/11/29 06:41:17;;;;;;;48.17;24.38;;;;;;;11.69;70.81;100281.56;5122919;28;20066;-61
2022/11/29 06:43:45;;;;;;;44.90;23.67;;;;;;;11.69;70.64;100276.00;5127414;28;20473;-62
2022/11/29 06:46:22;;;;;;;45.85;22.90;;;;;;;11.70;71.07;100283.22;5124151;28;20063;-62
2022/11/29 06:48:53;;;;;;;44.45;21.67;;;;;;;11.71;70.60;100293.22;5124692;27;20047;-62
2022/11/29 06:51:29;;;;;;;44.05;23.30;;;;;;;11.71;70.38;100290.44;5129593;28;20047;-63
2022/11/29 06:54:09;;;;;;;40.00;21.13;;;;;;;11.71;71.17;100295.19;5130810;28;20060;-62
2022/11/29 06:56:41;;;;;;;37.17;19.35;;;;;;;11.71;70.92;100293.22;5115790;28;20054;-62
2022/11/29 06:59:31;;;;;;;30.75;16.98;;;;;;;11.74;70.80;100297.34;5122655;28;20047;-61
2022/11/29 07:02:04;;;;;;;38.88;20.02;;;;;;;11.74;70.63;100306.53;5122847;28;20047;-62
2022/11/29 07:04:55;;;;;;;32.13;18.92;;;;;;;11.75;70.67;100302.59;5120765;27;20047;-61
2022/11/29 07:07:23;;;;;;;31.90;17.92;;;;;;;11.76;70.68;100309.00;5113825;28;20403;-62
2022/11/29 07:09:59;;;;;;;30.23;17.58;;;;;;;11.77;70.80;100305.88;5111522;28;20051;-61
2022/11/29 07:12:27;;;;;;;26.98;16.52;;;;;;;11.77;70.22;100314.25;5114544;28;20146;-62
2022/11/29 07:14:55;;;;;;;28.55;15.77;;;;;;;11.77;70.24;100321.78;5115421;28;20400;-62
2022/11/29 07:17:27;;;;;;;27.80;17.27;;;;;;;11.77;69.98;100313.44;5118079;27;20339;-61
2022/11/29 07:20:03;;;;;;;29.88;17.65;;;;;;;11.79;70.09;100320.31;5155329;27;20043;-61
2022/11/29 07:22:52;;;;;;;29.33;17.63;;;;;;;11.84;69.70;100315.72;5156945;27;20132;-62
2022/11/29 07:25:34;;;;;;;29.63;18.15;;;;;;;11.81;69.62;100321.97;5156813;27;20368;-61
2022/11/29 07:28:14;;;;;;;30.98;17.27;;;;;;;11.76;69.64;100320.97;5156351;27;20054;-61
2022/11/29 07:30:52;;;;;;;31.05;17.75;;;;;;;11.73;69.16;100318.84;5156624;27;20403;-62
2022/11/29 07:33:25;;;;;;;31.83;17.77;;;;;;;11.73;68.87;100326.38;5146686;27;20058;-62
2022/11/29 07:36:00;;;;;;;32.63;18.40;;;;;;;11.73;69.51;100326.38;5136166;27;20050;-62
2022/11/29 07:38:43;;;;;;;29.88;18.27;;;;;;;11.74;69.71;100331.66;5135743;27;20415;-61
2022/11/29 07:41:17;;;;;;;28.67;16.75;;;;;;;11.73;69.45;100335.56;5135140;27;20054;-61
2022/11/29 07:43:55;;;;;;;27.88;17.38;;;;;;;11.72;70.35;100345.09;5135323;27;20066;-61
2022/11/29 07:46:27;;;;;;;29.65;17.25;;;;;;;11.76;70.15;100342.50;5135897;27;20043;-61
2022/11/29 07:48:54;;;;;;;29.60;16.65;;;;;;;11.75;69.63;100346.41;5140789;27;20057;-61
2022/11/29 07:51:22;;;;;;;33.97;18.02;;;;;;;11.78;69.86;100352.19;5154242;27;20050;-61
2022/11/29 07:53:49;;;;;;;33.90;17.88;;;;;;;11.78;69.13;100352.19;5153386;27;20073;-61
2022/11/29 07:56:18;;;;;;;28.92;16.67;;;;;;;11.82;69.24;100351.50;5146386;27;20092;-61
2022/11/29 07:58:45;;;;;;;26.98;16.02;;;;;;;11.77;69.09;100350.53;5156060;27;20050;-61
2022/11/29 08:01:12;;;;;;;25.55;15.32;;;;;;;11.83;68.82;100353.97;5156512;27;20046;-62
2022/11/29 08:03:41;;;;;;;26.85;16.42;;;;;;;11.84;68.91;100341.66;5155920;27;20066;-60
2022/11/29 08:06:08;;;;;;;29.88;16.23;;;;;;;11.83;68.89;100353.16;5156317;27;20391;-61
2022/11/29 08:08:36;;;;;;;28.10;15.20;;;;;;;11.87;69.08;100359.75;5152228;27;20073;-61
2022/11/29 08:11:09;;;;;;;32.97;17.20;;;;;;;11.93;68.43;100353.69;5156037;27;20490;-61
2022/11/29 08:13:37;;;;;;;37.50;18.88;;;;;;;11.91;68.55;100360.78;5148390;27;20050;-61
2022/11/29 08:16:05;;;;;;;24.70;14.75;;;;;;;11.98;68.62;100361.09;5156119;27;20050;-60
2022/11/29 08:18:32;;;;;;;26.67;15.10;;;;;;;11.97;68.84;100349.13;5156126;27;20050;-61
2022/11/29 08:21:05;;;;;;;33.35;17.42;;;;;;;11.95;67.87;100358.97;5155855;27;20077;-61
2022/11/29 08:23:32;;;;;;;30.70;14.20;;;;;;;11.99;67.89;100362.75;5155016;27;20061;-61
2022/11/29 08:26:00;;;;;;;32.00;15.10;;;;;;;12.00;68.13;100361.59;5155486;27;20050;-61
2022/11/29 08:28:27;;;;;;;26.67;13.25;;;;;;;12.00;67.72;100374.72;5151150;27;20053;-61
2022/11/29 08:31:02;;;;;;;30.75;14.82;;;;;;;11.98;67.25;100377.84;5155598;27;20054;-61
2022/11/29 08:33:30;;;;;;;22.75;12.77;;;;;;;11.96;67.90;100383.75;5155458;27;20047;-61
2022/11/29 08:36:04;;;;;;;28.17;14.38;;;;;;;11.94;67.29;100379.63;5155285;27;20046;-61
2022/11/29 08:38:31;;;;;;;23.73;12.32;;;;;;;11.97;67.48;100377.03;5155247;27;20046;-61
2022/11/29 08:41:01;;;;;;;27.70;14.13;;;;;;;11.99;67.69;100387.88;5155286;27;20053;-61
2022/11/29 08:43:28;;;;;;;29.00;13.80;;;;;;;12.02;67.11;100384.41;5132632;27;20042;-61
2022/11/29 08:45:56;;;;;;;27.30;13.35;;;;;;;12.08;67.16;100387.88;5155134;27;20387;-61
2022/11/29 08:48:25;;;;;;;25.65;14.40;;;;;;;12.07;67.16;100386.22;5150823;27;20058;-61
2022/11/29 08:50:53;;;;;;;28.00;13.63;;;;;;;12.06;67.24;100391.00;5152661;27;20054;-61
2022/11/29 08:56:07;;;;;;;28.75;13.38;;;;;;;12.15;66.71;100391.00;5148021;27;20051;-61
2022/11/29 08:58:34;;;;;;;23.83;12.55;;;;;;;12.15;66.50;100400.19;5134436;27;20059;-61
2022/11/29 09:01:01;;;;;;;32.03;15.10;;;;;;;12.15;66.05;100399.38;5134163;27;20055;-61
2022/11/29 09:06:16;;;;;;;24.77;12.93;;;;;;;12.21;66.39;100408.41;5157973;27;20058;-61
2022/11/29 09:08:44;;;;;;;28.65;13.90;;;;;;;12.26;66.16;100405.47;5154615;27;20057;-62
2022/11/29 09:11:13;;;;;;;25.42;12.52;;;;;;;12.27;65.59;100412.69;5151391;27;20061;-62
2022/11/29 09:13:41;;;;;;;26.00;13.10;;;;;;;12.36;65.60;100413.53;5152893;27;20039;-61
2022/11/29 09:16:11;;;;;;;25.30;12.30;;;;;;;12.38;65.08;100414.00;5154597;27;20054;-61
2022/11/29 09:18:41;;;;;;;28.90;13.57;;;;;;;12.42;65.28;100417.78;5154974;27;20046;-61
2022/11/29 09:21:10;;;;;;;29.98;14.20;;;;;;;12.46;65.02;100421.56;5154624;27;20483;-61
2022/11/29 09:23:39;;;;;;;30.92;14.18;;;;;;;12.53;64.95;100424.69;5154438;27;20487;-61
2022/11/29 09:26:08;;;;;;;26.60;13.73;;;;;;;12.58;64.24;100429.31;5154213;27;20050;-61
2022/11/29 09:28:35;;;;;;;26.00;13.20;;;;;;;12.62;64.29;100433.09;5151589;27;20495;-61
2022/11/29 09:31:05;;;;;;;24.17;12.10;;;;;;;12.64;64.26;100436.38;5154443;27;20059;-61
2022/11/29 09:33:33;;;;;;;25.80;12.15;;;;;;;12.67;64.44;100437.69;5150208;27;20414;-61
2022/11/29 09:36:02;;;;;;;27.75;13.82;;;;;;;12.69;63.40;100438.19;5142559;27;20050;-62
2022/11/29 09:38:29;;;;;;;24.33;12.07;;;;;;;12.67;64.09;100444.09;5154436;27;20049;-61
2022/11/29 09:41:01;;;;;;;27.77;13.60;;;;;;;12.68;63.17;100439.31;5147775;27;20055;-61
2022/11/29 09:43:38;;;;;;;30.95;14.18;;;;;;;12.65;63.78;100446.38;5137213;27;20069;-61
2022/11/29 09:46:16;;;;;;;26.17;13.00;;;;;;;12.65;63.86;100446.38;5092454;28;20063;-61
2022/11/29 09:49:03;;;;;;;26.23;13.70;;;;;;;12.68;64.15;100461.66;5092598;28;20481;-61
2022/11/29 09:51:40;;;;;;;30.55;14.35;;;;;;;12.70;64.33;100456.56;5092959;28;20461;-62
2022/11/29 09:54:20;;;;;;;26.17;12.63;;;;;;;12.73;63.07;100458.72;5096461;28;20047;-61
2022/11/29 09:56:51;;;;;;;28.92;13.23;;;;;;;12.77;63.12;100459.72;5111590;28;20059;-61
2022/11/29 09:59:22;;;;;;;26.83;12.85;;;;;;;12.68;63.02;100465.31;5111929;28;20063;-61
2022/11/29 10:01:54;;;;;;;25.52;12.55;;;;;;;12.71;63.32;100461.03;5110949;28;20051;-61
2022/11/29 10:04:27;;;;;;;27.08;12.75;;;;;;;12.74;62.50;100460.34;5092518;28;20052;-62
2022/11/29 10:07:01;;;;;;;22.80;12.48;;;;;;;12.75;63.41;100462.03;5091546;28;20059;-61
2022/11/29 10:09:35;;;;;;;26.73;13.57;;;;;;;12.71;62.34;100461.84;5103991;28;20063;-61
2022/11/29 10:12:13;;;;;;;28.10;13.40;;;;;;;12.73;62.75;100458.72;5112712;28;20483;-61
2022/11/29 10:14:47;;;;;;;27.40;12.52;;;;;;;12.73;62.87;100465.13;5112576;28;20063;-61
2022/11/29 10:17:26;;;;;;;25.13;12.52;;;;;;;12.74;62.25;100465.94;5112454;28;20072;-61
2022/11/29 10:19:59;;;;;;;23.13;12.85;;;;;;;12.73;62.37;100464.31;5112285;28;20062;-61
2022/11/29 10:22:38;;;;;;;27.85;12.95;;;;;;;12.72;62.06;100462.66;5102856;28;20052;-61
2022/11/29 10:25:09;;;;;;;27.47;12.10;;;;;;;12.72;61.66;100469.06;5088910;28;20499;-61
2022/11/29 10:27:39;;;;;;;32.33;15.35;;;;;;;12.72;62.49;100462.66;5112219;28;20485;-62
2022/11/29 10:30:13;;;;;;;28.40;14.80;;;;;;;12.70;62.77;100470.56;5112041;28;20404;-61
2022/11/29 10:32:41;;;;;;;27.25;13.65;;;;;;;12.69;62.43;100466.13;5112487;28;20469;-61
2022/11/29 10:35:14;;;;;;;27.77;13.27;;;;;;;12.73;62.62;100465.13;5108993;28;20056;-61
2022/11/29 10:37:43;;;;;;;24.58;12.70;;;;;;;12.76;62.13;100466.44;5109260;28;20051;-61
2022/11/29 10:40:16;;;;;;;23.60;12.25;;;;;;;12.83;62.52;100465.94;5111944;28;20055;-61
2022/11/29 10:42:51;;;;;;;30.63;12.63;;;;;;;12.84;62.67;100468.41;5103302;28;20059;-61
2022/11/29 10:45:25;;;;;;;31.70;13.60;;;;;;;12.90;61.85;100469.88;5090890;28;20075;-61
2022/11/29 10:47:54;;;;;;;27.92;12.80;;;;;;;12.91;62.15;100468.72;5095567;28;20056;-61
2022/11/29 10:50:25;;;;;;;22.25;11.48;;;;;;;12.93;62.60;100462.81;5095680;28;20059;-62
2022/11/29 10:52:56;;;;;;;23.50;10.93;;;;;;;12.97;61.86;100466.59;5110991;28;20047;-61
2022/11/29 10:55:26;;;;;;;24.42;11.57;;;;;;;13.06;60.37;100469.38;5116215;28;20054;-61
2022/11/29 10:58:14;;;;;;;25.65;11.95;;;;;;;12.95;60.76;100478.09;5116131;28;20522;-61
2022/11/29 11:01:00;;;;;;;23.02;11.63;;;;;;;12.93;62.21;100471.19;5116257;28;20051;-61
2022/11/29 11:03:33;;;;;;;24.75;11.23;;;;;;;13.02;61.46;100471.19;5115173;28;20407;-61
2022/11/29 11:06:08;;;;;;;20.65;10.65;;;;;;;13.05;62.25;100471.34;5099799;28;20044;-61
2022/11/29 11:08:38;;;;;;;20.73;9.90;;;;;;;13.13;60.33;100475.28;5115942;28;20055;-61
2022/11/29 11:11:08;;;;;;;26.05;9.73;;;;;;;13.12;61.41;100468.88;5115816;28;20380;-61
2022/11/29 11:13:36;;;;;;;27.42;12.02;;;;;;;13.15;61.16;100473.81;5116232;28;20051;-61
2022/11/29 11:16:18;;;;;;;23.85;10.57;;;;;;;13.22;61.51;100467.69;5115999;28;20477;-61
2022/11/29 11:18:47;;;;;;;23.30;11.32;;;;;;;13.24;60.66;100476.59;5115929;28;20051;-61
2022/11/29 11:21:17;;;;;;;24.33;11.23;;;;;;;13.22;61.07;100464.91;5107432;28;20052;-62
2022/11/29 11:23:54;;;;;;;21.33;10.57;;;;;;;13.24;60.96;100479.38;5115519;28;20062;-61
2022/11/29 11:26:23;;;;;;;22.10;9.70;;;;;;;13.25;61.11;100464.25;5114844;28;20464;-61
2022/11/29 11:28:55;;;;;;;24.90;10.75;;;;;;;13.25;60.83;100474.59;5115568;28;20473;-61
2022/11/29 11:31:28;;;;;;;23.02;11.10;;;;;;;13.24;60.89;100464.56;5115121;28;20392;-61
2022/11/29 11:34:17;;;;;;;23.27;10.93;;;;;;;13.20;60.45;100468.03;5113723;28;20051;-62
2022/11/29 11:36:45;;;;;;;25.23;11.02;;;;;;;13.19;60.51;100468.38;5083191;28;20055;-61
2022/11/29 11:39:20;;;;;;;23.10;11.75;;;;;;;13.20;60.22;100472.81;5101031;28;20051;-61
2022/11/29 11:44:39;;;;;;;29.77;12.55;;;;;;;13.20;60.27;100473.63;5106391;28;20416;-60
2022/11/29 11:47:13;;;;;;;24.45;11.77;;;;;;;13.26;60.32;100476.25;5115049;28;20460;-60
2022/11/29 11:49:48;;;;;;;29.02;12.60;;;;;;;13.32;60.01;100467.38;5114930;28;20056;-60
2022/11/29 11:52:20;;;;;;;29.08;12.30;;;;;;;13.42;59.67;100465.38;5114824;28;20059;-60
2022/11/29 11:54:54;;;;;;;23.27;10.57;;;;;;;13.47;60.52;100470.81;5113986;28;20064;-61
2022/11/29 11:57:26;;;;;;;25.88;12.60;;;;;;;13.54;60.40;100473.88;5125405;27;20051;-61
2022/11/29 11:59:55;;;;;;;26.38;13.80;;;;;;;13.53;59.47;100475.06;5133559;27;20051;-60
2022/11/29 12:02:36;;;;;;;30.67;13.45;;;;;;;13.35;59.75;100480.69;5129120;27;20062;-60